sensor_id;sensor_type;location;lat;lon;timestamp;P1;durP1;ratioP1;P2;durP2;ratioP2
7971;SDS011;4031;49.758;6.120;2023-04-07T00:01:44;17.37;;;10.60;;
7971;SDS011;4031;49.758;6.120;2023-04-07T00:04:10;17.17;;;11.20;;
7971;SDS011;4031;49.758;6.120;2023-04-07T00:06:35;19.17;;;11.20;;
7971;SDS011;4031;49.758;6.120;2023-04-07T00:09:01;15.00;;;10.33;;
7971;SDS011;4031;49.758;6.120;2023-04-07T00:11:27;20.13;;;10.57;;
7971;SDS011;4031;49.758;6.120;2023-04-07T00:13:53;16.77;;;8.47;;
7971;SDS011;4031;49.758;6.120;2023-04-07T00:16:18;22.77;;;9.93;;
7971;SDS011;4031;49.758;6.120;2023-04-07T00:18:45;16.00;;;10.43;;
7971;SDS011;4031;49.758;6.120;2023-04-07T00:21:11;14.30;;;10.40;;
7971;SDS011;4031;49.758;6.120;2023-04-07T00:23:36;21.07;;;12.27;;
7971;SDS011;4031;49.758;6.120;2023-04-07T00:26:02;16.60;;;10.03;;
7971;SDS011;4031;49.758;6.120;2023-04-07T00:28:28;15.73;;;10.83;;
7971;SDS011;4031;49.758;6.120;2023-04-07T00:30:53;20.57;;;11.70;;
7971;SDS011;4031;49.758;6.120;2023-04-07T00:33:19;18.23;;;11.90;;
7971;SDS011;4031;49.758;6.120;2023-04-07T00:35:45;16.97;;;10.70;;
7971;SDS011;4031;49.758;6.120;2023-04-07T00:38:11;15.23;;;11.20;;
7971;SDS011;4031;49.758;6.120;2023-04-07T00:40:37;16.30;;;11.60;;
7971;SDS011;4031;49.758;6.120;2023-04-07T00:43:02;15.90;;;11.73;;
7971;SDS011;4031;49.758;6.120;2023-04-07T00:45:28;16.30;;;11.77;;
7971;SDS011;4031;49.758;6.120;2023-04-07T00:47:55;17.40;;;11.50;;
7971;SDS011;4031;49.758;6.120;2023-04-07T00:50:22;27.47;;;13.10;;
7971;SDS011;4031;49.758;6.120;2023-04-07T00:52:48;21.00;;;12.87;;
7971;SDS011;4031;49.758;6.120;2023-04-07T00:55:15;22.97;;;13.37;;
7971;SDS011;4031;49.758;6.120;2023-04-07T00:57:40;22.20;;;12.50;;
7971;SDS011;4031;49.758;6.120;2023-04-07T01:00:06;16.67;;;11.30;;
7971;SDS011;4031;49.758;6.120;2023-04-07T01:08:38;19.53;;;11.63;;
7971;SDS011;4031;49.758;6.120;2023-04-07T01:11:19;15.83;;;10.30;;
7971;SDS011;4031;49.758;6.120;2023-04-07T01:13:51;13.80;;;8.50;;
7971;SDS011;4031;49.758;6.120;2023-04-07T01:22:12;15.77;;;9.50;;
7971;SDS011;4031;49.758;6.120;2023-04-07T01:27:57;14.00;;;8.90;;
7971;SDS011;4031;49.758;6.120;2023-04-07T01:30:29;16.67;;;8.77;;
7971;SDS011;4031;49.758;6.120;2023-04-07T01:32:58;14.43;;;9.03;;
7971;SDS011;4031;49.758;6.120;2023-04-07T01:35:25;13.80;;;9.23;;
7971;SDS011;4031;49.758;6.120;2023-04-07T01:37:55;12.53;;;9.03;;
7971;SDS011;4031;49.758;6.120;2023-04-07T01:40:21;15.77;;;9.17;;
7971;SDS011;4031;49.758;6.120;2023-04-07T01:42:49;21.03;;;9.80;;
7971;SDS011;4031;49.758;6.120;2023-04-07T01:45:16;11.83;;;7.47;;
7971;SDS011;4031;49.758;6.120;2023-04-07T01:47:42;15.10;;;8.27;;
7971;SDS011;4031;49.758;6.120;2023-04-07T01:50:10;16.13;;;8.57;;
7971;SDS011;4031;49.758;6.120;2023-04-07T01:52:36;14.80;;;8.63;;
7971;SDS011;4031;49.758;6.120;2023-04-07T01:55:04;18.70;;;8.37;;
7971;SDS011;4031;49.758;6.120;2023-04-07T01:57:31;13.57;;;8.83;;
7971;SDS011;4031;49.758;6.120;2023-04-07T01:59:57;15.70;;;8.90;;
7971;SDS011;4031;49.758;6.120;2023-04-07T02:02:23;17.13;;;8.00;;
7971;SDS011;4031;49.758;6.120;2023-04-07T02:10:38;16.50;;;9.07;;
7971;SDS011;4031;49.758;6.120;2023-04-07T02:13:04;16.40;;;9.07;;
7971;SDS011;4031;49.758;6.120;2023-04-07T02:15:33;17.10;;;8.50;;
7971;SDS011;4031;49.758;6.120;2023-04-07T02:18:00;16.07;;;8.20;;
7971;SDS011;4031;49.758;6.120;2023-04-07T02:20:28;14.77;;;8.20;;
7971;SDS011;4031;49.758;6.120;2023-04-07T02:22:55;13.30;;;8.67;;
7971;SDS011;4031;49.758;6.120;2023-04-07T02:25:22;17.97;;;9.23;;
7971;SDS011;4031;49.758;6.120;2023-04-07T02:27:53;16.70;;;9.90;;
7971;SDS011;4031;49.758;6.120;2023-04-07T02:30:21;18.73;;;9.60;;
7971;SDS011;4031;49.758;6.120;2023-04-07T02:32:47;17.70;;;9.60;;
7971;SDS011;4031;49.758;6.120;2023-04-07T02:35:13;15.50;;;9.20;;
7971;SDS011;4031;49.758;6.120;2023-04-07T02:37:40;18.70;;;8.40;;
7971;SDS011;4031;49.758;6.120;2023-04-07T02:40:07;11.40;;;8.33;;
7971;SDS011;4031;49.758;6.120;2023-04-07T02:42:33;17.20;;;8.37;;
7971;SDS011;4031;49.758;6.120;2023-04-07T02:45:00;11.70;;;7.20;;
7971;SDS011;4031;49.758;6.120;2023-04-07T02:47:30;13.10;;;8.07;;
7971;SDS011;4031;49.758;6.120;2023-04-07T02:49:57;14.90;;;8.27;;
7971;SDS011;4031;49.758;6.120;2023-04-07T02:52:23;18.90;;;9.30;;
7971;SDS011;4031;49.758;6.120;2023-04-07T02:54:48;10.73;;;8.00;;
7971;SDS011;4031;49.758;6.120;2023-04-07T02:57:14;14.77;;;8.83;;
7971;SDS011;4031;49.758;6.120;2023-04-07T02:59:40;13.57;;;7.90;;
7971;SDS011;4031;49.758;6.120;2023-04-07T03:02:06;14.50;;;8.33;;
7971;SDS011;4031;49.758;6.120;2023-04-07T03:04:31;13.03;;;8.17;;
7971;SDS011;4031;49.758;6.120;2023-04-07T03:06:57;14.03;;;7.87;;
7971;SDS011;4031;49.758;6.120;2023-04-07T03:09:23;16.13;;;8.93;;
7971;SDS011;4031;49.758;6.120;2023-04-07T03:11:48;14.67;;;8.30;;
7971;SDS011;4031;49.758;6.120;2023-04-07T03:14:14;15.87;;;8.70;;
7971;SDS011;4031;49.758;6.120;2023-04-07T03:16:40;12.77;;;6.83;;
7971;SDS011;4031;49.758;6.120;2023-04-07T03:19:07;10.20;;;7.53;;
7971;SDS011;4031;49.758;6.120;2023-04-07T03:21:33;11.27;;;7.10;;
7971;SDS011;4031;49.758;6.120;2023-04-07T03:24:01;11.77;;;7.27;;
7971;SDS011;4031;49.758;6.120;2023-04-07T03:26:27;14.67;;;7.30;;
7971;SDS011;4031;49.758;6.120;2023-04-07T03:28:53;8.20;;;6.37;;
7971;SDS011;4031;49.758;6.120;2023-04-07T03:31:18;11.90;;;7.30;;
7971;SDS011;4031;49.758;6.120;2023-04-07T03:33:44;16.07;;;6.70;;
7971;SDS011;4031;49.758;6.120;2023-04-07T03:36:10;8.47;;;5.97;;
7971;SDS011;4031;49.758;6.120;2023-04-07T03:38:36;9.43;;;6.53;;
7971;SDS011;4031;49.758;6.120;2023-04-07T03:41:01;12.37;;;7.27;;
7971;SDS011;4031;49.758;6.120;2023-04-07T03:43:27;9.30;;;5.87;;
7971;SDS011;4031;49.758;6.120;2023-04-07T03:45:53;10.37;;;7.10;;
7971;SDS011;4031;49.758;6.120;2023-04-07T03:48:18;10.97;;;7.40;;
7971;SDS011;4031;49.758;6.120;2023-04-07T03:50:45;10.13;;;7.80;;
7971;SDS011;4031;49.758;6.120;2023-04-07T03:53:10;15.90;;;7.37;;
7971;SDS011;4031;49.758;6.120;2023-04-07T03:55:39;9.93;;;6.90;;
7971;SDS011;4031;49.758;6.120;2023-04-07T03:58:05;12.33;;;7.87;;
7971;SDS011;4031;49.758;6.120;2023-04-07T04:00:31;13.80;;;7.20;;
7971;SDS011;4031;49.758;6.120;2023-04-07T04:02:57;14.17;;;7.60;;
7971;SDS011;4031;49.758;6.120;2023-04-07T04:05:24;11.70;;;6.33;;
7971;SDS011;4031;49.758;6.120;2023-04-07T04:07:49;13.50;;;7.40;;
7971;SDS011;4031;49.758;6.120;2023-04-07T04:10:16;12.73;;;7.20;;
7971;SDS011;4031;49.758;6.120;2023-04-07T04:12:48;15.80;;;6.80;;
7971;SDS011;4031;49.758;6.120;2023-04-07T04:15:14;12.13;;;7.07;;
7971;SDS011;4031;49.758;6.120;2023-04-07T04:17:40;12.33;;;7.60;;
7971;SDS011;4031;49.758;6.120;2023-04-07T04:20:07;13.23;;;6.50;;
7971;SDS011;4031;49.758;6.120;2023-04-07T04:22:33;10.00;;;7.17;;
7971;SDS011;4031;49.758;6.120;2023-04-07T04:25:00;9.60;;;6.20;;
7971;SDS011;4031;49.758;6.120;2023-04-07T04:27:26;9.43;;;7.00;;
7971;SDS011;4031;49.758;6.120;2023-04-07T04:29:52;13.63;;;6.30;;
7971;SDS011;4031;49.758;6.120;2023-04-07T04:32:18;9.33;;;5.90;;
7971;SDS011;4031;49.758;6.120;2023-04-07T04:34:45;13.43;;;6.10;;
7971;SDS011;4031;49.758;6.120;2023-04-07T04:37:11;10.40;;;6.60;;
7971;SDS011;4031;49.758;6.120;2023-04-07T04:39:36;12.23;;;6.33;;
7971;SDS011;4031;49.758;6.120;2023-04-07T04:42:02;13.93;;;6.57;;
7971;SDS011;4031;49.758;6.120;2023-04-07T04:44:29;15.90;;;5.70;;
7971;SDS011;4031;49.758;6.120;2023-04-07T04:46:55;10.70;;;6.20;;
7971;SDS011;4031;49.758;6.120;2023-04-07T04:49:21;11.43;;;6.77;;
7971;SDS011;4031;49.758;6.120;2023-04-07T04:51:47;11.77;;;6.40;;
7971;SDS011;4031;49.758;6.120;2023-04-07T04:54:13;8.03;;;5.50;;
7971;SDS011;4031;49.758;6.120;2023-04-07T04:56:38;11.80;;;7.07;;
7971;SDS011;4031;49.758;6.120;2023-04-07T04:59:04;13.53;;;6.67;;
7971;SDS011;4031;49.758;6.120;2023-04-07T05:01:30;10.67;;;5.80;;
7971;SDS011;4031;49.758;6.120;2023-04-07T05:03:56;8.60;;;7.23;;
7971;SDS011;4031;49.758;6.120;2023-04-07T05:06:22;10.83;;;5.93;;
7971;SDS011;4031;49.758;6.120;2023-04-07T05:08:47;9.20;;;5.43;;
7971;SDS011;4031;49.758;6.120;2023-04-07T05:11:13;12.37;;;6.10;;
7971;SDS011;4031;49.758;6.120;2023-04-07T05:13:40;11.27;;;5.83;;
7971;SDS011;4031;49.758;6.120;2023-04-07T05:16:06;12.23;;;6.93;;
7971;SDS011;4031;49.758;6.120;2023-04-07T05:18:31;10.70;;;6.00;;
7971;SDS011;4031;49.758;6.120;2023-04-07T05:20:57;11.90;;;6.80;;
7971;SDS011;4031;49.758;6.120;2023-04-07T05:23:23;13.83;;;7.20;;
7971;SDS011;4031;49.758;6.120;2023-04-07T05:25:49;12.87;;;6.30;;
7971;SDS011;4031;49.758;6.120;2023-04-07T05:28:15;13.37;;;7.50;;
7971;SDS011;4031;49.758;6.120;2023-04-07T05:30:40;12.63;;;7.13;;
7971;SDS011;4031;49.758;6.120;2023-04-07T05:33:06;16.93;;;7.30;;
7971;SDS011;4031;49.758;6.120;2023-04-07T05:35:32;19.07;;;7.60;;
7971;SDS011;4031;49.758;6.120;2023-04-07T05:37:57;8.23;;;6.20;;
7971;SDS011;4031;49.758;6.120;2023-04-07T05:40:23;9.73;;;5.80;;
7971;SDS011;4031;49.758;6.120;2023-04-07T05:42:49;20.90;;;7.67;;
7971;SDS011;4031;49.758;6.120;2023-04-07T05:45:15;11.70;;;7.20;;
7971;SDS011;4031;49.758;6.120;2023-04-07T05:47:41;16.17;;;7.03;;
7971;SDS011;4031;49.758;6.120;2023-04-07T05:50:07;9.40;;;6.57;;
7971;SDS011;4031;49.758;6.120;2023-04-07T05:52:33;12.33;;;5.70;;
7971;SDS011;4031;49.758;6.120;2023-04-07T05:54:59;12.40;;;6.90;;
7971;SDS011;4031;49.758;6.120;2023-04-07T05:57:24;12.60;;;6.87;;
7971;SDS011;4031;49.758;6.120;2023-04-07T05:59:52;11.53;;;6.40;;
7971;SDS011;4031;49.758;6.120;2023-04-07T06:02:18;11.53;;;6.60;;
7971;SDS011;4031;49.758;6.120;2023-04-07T06:04:43;10.60;;;6.40;;
7971;SDS011;4031;49.758;6.120;2023-04-07T06:07:10;17.03;;;7.43;;
7971;SDS011;4031;49.758;6.120;2023-04-07T06:09:35;19.10;;;7.50;;
7971;SDS011;4031;49.758;6.120;2023-04-07T06:12:01;13.60;;;10.93;;
7971;SDS011;4031;49.758;6.120;2023-04-07T06:14:29;17.07;;;9.80;;
7971;SDS011;4031;49.758;6.120;2023-04-07T06:16:54;11.83;;;7.70;;
7971;SDS011;4031;49.758;6.120;2023-04-07T06:19:20;11.47;;;7.70;;
7971;SDS011;4031;49.758;6.120;2023-04-07T06:21:46;14.47;;;7.83;;
7971;SDS011;4031;49.758;6.120;2023-04-07T06:24:12;15.50;;;7.57;;
7971;SDS011;4031;49.758;6.120;2023-04-07T06:26:38;9.60;;;6.60;;
7971;SDS011;4031;49.758;6.120;2023-04-07T06:29:04;10.77;;;6.47;;
7971;SDS011;4031;49.758;6.120;2023-04-07T06:31:30;17.73;;;7.33;;
7971;SDS011;4031;49.758;6.120;2023-04-07T06:33:56;13.20;;;7.83;;
7971;SDS011;4031;49.758;6.120;2023-04-07T06:36:22;18.87;;;7.57;;
7971;SDS011;4031;49.758;6.120;2023-04-07T06:38:47;16.90;;;7.63;;
7971;SDS011;4031;49.758;6.120;2023-04-07T06:41:13;14.50;;;6.00;;
7971;SDS011;4031;49.758;6.120;2023-04-07T06:43:42;15.37;;;7.10;;
7971;SDS011;4031;49.758;6.120;2023-04-07T06:46:10;8.90;;;5.90;;
7971;SDS011;4031;49.758;6.120;2023-04-07T06:48:36;9.63;;;7.00;;
7971;SDS011;4031;49.758;6.120;2023-04-07T06:51:01;10.27;;;7.00;;
7971;SDS011;4031;49.758;6.120;2023-04-07T06:53:27;9.10;;;6.10;;
7971;SDS011;4031;49.758;6.120;2023-04-07T06:56:06;8.53;;;5.43;;
7971;SDS011;4031;49.758;6.120;2023-04-07T06:58:34;10.50;;;5.93;;
7971;SDS011;4031;49.758;6.120;2023-04-07T07:01:01;14.90;;;5.53;;
7971;SDS011;4031;49.758;6.120;2023-04-07T07:03:28;11.00;;;5.33;;
7971;SDS011;4031;49.758;6.120;2023-04-07T07:05:55;8.80;;;5.63;;
7971;SDS011;4031;49.758;6.120;2023-04-07T07:08:25;8.00;;;5.27;;
7971;SDS011;4031;49.758;6.120;2023-04-07T07:10:51;8.87;;;5.60;;
7971;SDS011;4031;49.758;6.120;2023-04-07T07:13:18;12.57;;;5.60;;
7971;SDS011;4031;49.758;6.120;2023-04-07T07:15:47;8.60;;;6.50;;
7971;SDS011;4031;49.758;6.120;2023-04-07T07:18:13;14.27;;;6.70;;
7971;SDS011;4031;49.758;6.120;2023-04-07T07:20:39;12.03;;;6.03;;
7971;SDS011;4031;49.758;6.120;2023-04-07T07:23:05;6.50;;;4.93;;
7971;SDS011;4031;49.758;6.120;2023-04-07T07:25:30;10.87;;;5.10;;
7971;SDS011;4031;49.758;6.120;2023-04-07T07:27:56;9.93;;;5.53;;
7971;SDS011;4031;49.758;6.120;2023-04-07T07:30:22;7.10;;;5.17;;
7971;SDS011;4031;49.758;6.120;2023-04-07T07:32:48;8.23;;;5.33;;
7971;SDS011;4031;49.758;6.120;2023-04-07T07:35:15;7.87;;;5.27;;
7971;SDS011;4031;49.758;6.120;2023-04-07T07:37:40;7.10;;;5.20;;
7971;SDS011;4031;49.758;6.120;2023-04-07T07:40:08;10.13;;;5.30;;
7971;SDS011;4031;49.758;6.120;2023-04-07T07:42:34;6.73;;;5.20;;
7971;SDS011;4031;49.758;6.120;2023-04-07T07:45:00;7.83;;;5.30;;
7971;SDS011;4031;49.758;6.120;2023-04-07T07:47:26;13.47;;;6.03;;
7971;SDS011;4031;49.758;6.120;2023-04-07T07:49:52;8.63;;;5.47;;
7971;SDS011;4031;49.758;6.120;2023-04-07T07:52:18;9.70;;;5.77;;
7971;SDS011;4031;49.758;6.120;2023-04-07T07:54:44;8.47;;;5.20;;
7971;SDS011;4031;49.758;6.120;2023-04-07T07:57:11;11.63;;;5.20;;
7971;SDS011;4031;49.758;6.120;2023-04-07T07:59:37;8.53;;;5.40;;
7971;SDS011;4031;49.758;6.120;2023-04-07T08:02:05;9.13;;;5.67;;
7971;SDS011;4031;49.758;6.120;2023-04-07T08:04:31;9.77;;;5.27;;
7971;SDS011;4031;49.758;6.120;2023-04-07T08:06:57;13.83;;;5.60;;
7971;SDS011;4031;49.758;6.120;2023-04-07T08:09:22;8.70;;;6.13;;
7971;SDS011;4031;49.758;6.120;2023-04-07T08:11:48;7.90;;;5.60;;
7971;SDS011;4031;49.758;6.120;2023-04-07T08:14:15;11.43;;;6.43;;
7971;SDS011;4031;49.758;6.120;2023-04-07T08:16:41;8.27;;;5.87;;
7971;SDS011;4031;49.758;6.120;2023-04-07T08:19:08;13.03;;;6.20;;
7971;SDS011;4031;49.758;6.120;2023-04-07T08:21:34;6.73;;;5.00;;
7971;SDS011;4031;49.758;6.120;2023-04-07T08:24:00;6.73;;;4.83;;
7971;SDS011;4031;49.758;6.120;2023-04-07T08:26:26;6.73;;;5.00;;
7971;SDS011;4031;49.758;6.120;2023-04-07T08:28:51;15.80;;;6.47;;
7971;SDS011;4031;49.758;6.120;2023-04-07T08:31:17;11.13;;;5.53;;
7971;SDS011;4031;49.758;6.120;2023-04-07T08:33:43;8.53;;;6.00;;
7971;SDS011;4031;49.758;6.120;2023-04-07T08:36:10;8.60;;;5.93;;
7971;SDS011;4031;49.758;6.120;2023-04-07T08:38:36;8.27;;;5.33;;
7971;SDS011;4031;49.758;6.120;2023-04-07T08:41:03;8.47;;;6.30;;
7971;SDS011;4031;49.758;6.120;2023-04-07T08:43:34;8.47;;;5.67;;
7971;SDS011;4031;49.758;6.120;2023-04-07T08:46:03;7.60;;;5.30;;
7971;SDS011;4031;49.758;6.120;2023-04-07T08:48:30;9.87;;;6.37;;
7971;SDS011;4031;49.758;6.120;2023-04-07T08:51:00;7.90;;;6.07;;
7971;SDS011;4031;49.758;6.120;2023-04-07T08:53:33;7.50;;;6.03;;
7971;SDS011;4031;49.758;6.120;2023-04-07T08:56:07;10.33;;;6.10;;
7971;SDS011;4031;49.758;6.120;2023-04-07T08:58:36;9.03;;;5.90;;
7971;SDS011;4031;49.758;6.120;2023-04-07T09:01:03;7.77;;;5.43;;
7971;SDS011;4031;49.758;6.120;2023-04-07T09:03:31;10.70;;;6.63;;
7971;SDS011;4031;49.758;6.120;2023-04-07T09:05:59;9.83;;;5.50;;
7971;SDS011;4031;49.758;6.120;2023-04-07T09:08:26;11.90;;;6.47;;
7971;SDS011;4031;49.758;6.120;2023-04-07T09:10:52;8.00;;;5.90;;
7971;SDS011;4031;49.758;6.120;2023-04-07T09:13:18;8.77;;;6.07;;
7971;SDS011;4031;49.758;6.120;2023-04-07T09:15:44;10.10;;;6.43;;
7971;SDS011;4031;49.758;6.120;2023-04-07T09:18:10;9.00;;;5.97;;
7971;SDS011;4031;49.758;6.120;2023-04-07T09:28:58;8.50;;;5.50;;
7971;SDS011;4031;49.758;6.120;2023-04-07T09:31:43;6.87;;;5.10;;
7971;SDS011;4031;49.758;6.120;2023-04-07T09:34:26;7.57;;;5.60;;
7971;SDS011;4031;49.758;6.120;2023-04-07T09:36:53;7.00;;;5.17;;
7971;SDS011;4031;49.758;6.120;2023-04-07T09:39:21;9.27;;;6.40;;
7971;SDS011;4031;49.758;6.120;2023-04-07T09:41:47;8.23;;;6.07;;
7971;SDS011;4031;49.758;6.120;2023-04-07T09:44:13;13.80;;;5.43;;
7971;SDS011;4031;49.758;6.120;2023-04-07T09:46:47;8.33;;;5.40;;
7971;SDS011;4031;49.758;6.120;2023-04-07T09:49:21;7.80;;;5.93;;
7971;SDS011;4031;49.758;6.120;2023-04-07T09:52:00;9.40;;;6.70;;
7971;SDS011;4031;49.758;6.120;2023-04-07T09:57:03;9.57;;;6.37;;
7971;SDS011;4031;49.758;6.120;2023-04-07T09:59:31;7.77;;;5.37;;
7971;SDS011;4031;49.758;6.120;2023-04-07T10:01:58;8.43;;;6.10;;
7971;SDS011;4031;49.758;6.120;2023-04-07T10:04:25;10.67;;;6.30;;
7971;SDS011;4031;49.758;6.120;2023-04-07T10:06:52;11.70;;;5.77;;
7971;SDS011;4031;49.758;6.120;2023-04-07T10:09:18;9.17;;;5.80;;
7971;SDS011;4031;49.758;6.120;2023-04-07T10:11:46;7.33;;;5.67;;
7971;SDS011;4031;49.758;6.120;2023-04-07T10:14:14;7.37;;;6.10;;
7971;SDS011;4031;49.758;6.120;2023-04-07T10:16:40;9.60;;;6.60;;
7971;SDS011;4031;49.758;6.120;2023-04-07T10:19:07;7.40;;;5.97;;
7971;SDS011;4031;49.758;6.120;2023-04-07T10:21:34;8.80;;;5.13;;
7971;SDS011;4031;49.758;6.120;2023-04-07T10:26:53;7.23;;;5.17;;
7971;SDS011;4031;49.758;6.120;2023-04-07T10:29:23;8.70;;;5.53;;
7971;SDS011;4031;49.758;6.120;2023-04-07T10:31:51;6.07;;;5.33;;
7971;SDS011;4031;49.758;6.120;2023-04-07T10:34:17;9.43;;;6.27;;
7971;SDS011;4031;49.758;6.120;2023-04-07T10:37:12;7.13;;;5.10;;
7971;SDS011;4031;49.758;6.120;2023-04-07T10:39:41;6.77;;;5.90;;
7971;SDS011;4031;49.758;6.120;2023-04-07T10:42:43;9.10;;;6.50;;
7971;SDS011;4031;49.758;6.120;2023-04-07T10:45:03;7.47;;;5.93;;
7971;SDS011;4031;49.758;6.120;2023-04-07T10:50:22;9.03;;;5.30;;
7971;SDS011;4031;49.758;6.120;2023-04-07T10:52:49;7.80;;;5.83;;
7971;SDS011;4031;49.758;6.120;2023-04-07T11:03:28;8.40;;;5.03;;
7971;SDS011;4031;49.758;6.120;2023-04-07T11:06:04;8.13;;;4.03;;
7971;SDS011;4031;49.758;6.120;2023-04-07T11:10:59;5.40;;;4.37;;
7971;SDS011;4031;49.758;6.120;2023-04-07T11:13:25;4.17;;;3.80;;
7971;SDS011;4031;49.758;6.120;2023-04-07T11:15:51;3.63;;;3.30;;
7971;SDS011;4031;49.758;6.120;2023-04-07T11:18:18;4.37;;;3.13;;
7971;SDS011;4031;49.758;6.120;2023-04-07T11:20:57;5.40;;;2.63;;
7971;SDS011;4031;49.758;6.120;2023-04-07T11:23:23;3.50;;;3.20;;
7971;SDS011;4031;49.758;6.120;2023-04-07T11:25:51;1.57;;;1.43;;
7971;SDS011;4031;49.758;6.120;2023-04-07T11:28:25;2.80;;;2.60;;
7971;SDS011;4031;49.758;6.120;2023-04-07T11:30:51;5.63;;;3.07;;
7971;SDS011;4031;49.758;6.120;2023-04-07T11:33:19;3.97;;;2.57;;
7971;SDS011;4031;49.758;6.120;2023-04-07T11:35:48;2.70;;;2.33;;
7971;SDS011;4031;49.758;6.120;2023-04-07T11:38:42;4.63;;;2.60;;
7971;SDS011;4031;49.758;6.120;2023-04-07T11:41:11;2.57;;;2.30;;
7971;SDS011;4031;49.758;6.120;2023-04-07T11:43:39;4.80;;;3.00;;
7971;SDS011;4031;49.758;6.120;2023-04-07T11:46:16;2.73;;;1.90;;
7971;SDS011;4031;49.758;6.120;2023-04-07T11:48:43;2.83;;;2.63;;
7971;SDS011;4031;49.758;6.120;2023-04-07T11:51:14;4.73;;;2.60;;
7971;SDS011;4031;49.758;6.120;2023-04-07T11:53:46;2.33;;;2.17;;
7971;SDS011;4031;49.758;6.120;2023-04-07T11:56:18;4.07;;;3.03;;
7971;SDS011;4031;49.758;6.120;2023-04-07T11:58:51;5.57;;;3.10;;
7971;SDS011;4031;49.758;6.120;2023-04-07T12:01:18;2.80;;;2.20;;
7971;SDS011;4031;49.758;6.120;2023-04-07T12:03:58;5.50;;;3.13;;
7971;SDS011;4031;49.758;6.120;2023-04-07T12:06:30;4.70;;;2.93;;
7971;SDS011;4031;49.758;6.120;2023-04-07T12:09:00;4.43;;;3.33;;
7971;SDS011;4031;49.758;6.120;2023-04-07T12:11:27;4.33;;;3.60;;
7971;SDS011;4031;49.758;6.120;2023-04-07T12:13:53;4.10;;;2.63;;
7971;SDS011;4031;49.758;6.120;2023-04-07T12:16:19;4.10;;;3.07;;
7971;SDS011;4031;49.758;6.120;2023-04-07T12:18:46;5.47;;;3.47;;
7971;SDS011;4031;49.758;6.120;2023-04-07T12:21:12;5.00;;;3.13;;
7971;SDS011;4031;49.758;6.120;2023-04-07T12:23:37;3.73;;;2.93;;
7971;SDS011;4031;49.758;6.120;2023-04-07T12:26:03;4.87;;;3.60;;
7971;SDS011;4031;49.758;6.120;2023-04-07T12:28:29;10.30;;;3.40;;
7971;SDS011;4031;49.758;6.120;2023-04-07T12:30:55;4.03;;;3.20;;
7971;SDS011;4031;49.758;6.120;2023-04-07T12:33:20;3.37;;;2.50;;
7971;SDS011;4031;49.758;6.120;2023-04-07T12:35:47;3.10;;;2.80;;
7971;SDS011;4031;49.758;6.120;2023-04-07T12:38:13;4.00;;;3.50;;
7971;SDS011;4031;49.758;6.120;2023-04-07T12:40:39;3.90;;;3.60;;
7971;SDS011;4031;49.758;6.120;2023-04-07T12:43:05;10.00;;;4.47;;
7971;SDS011;4031;49.758;6.120;2023-04-07T12:45:34;5.13;;;3.67;;
7971;SDS011;4031;49.758;6.120;2023-04-07T12:47:59;4.60;;;3.63;;
7971;SDS011;4031;49.758;6.120;2023-04-07T12:50:25;5.40;;;3.10;;
7971;SDS011;4031;49.758;6.120;2023-04-07T12:52:51;3.63;;;2.87;;
7971;SDS011;4031;49.758;6.120;2023-04-07T12:55:18;10.10;;;4.20;;
7971;SDS011;4031;49.758;6.120;2023-04-07T12:57:44;47.70;;;18.60;;
7971;SDS011;4031;49.758;6.120;2023-04-07T13:00:11;6.07;;;3.80;;
7971;SDS011;4031;49.758;6.120;2023-04-07T13:02:38;3.60;;;3.30;;
7971;SDS011;4031;49.758;6.120;2023-04-07T13:05:04;5.03;;;4.47;;
7971;SDS011;4031;49.758;6.120;2023-04-07T13:07:31;4.30;;;3.30;;
7971;SDS011;4031;49.758;6.120;2023-04-07T13:09:59;6.80;;;3.60;;
7971;SDS011;4031;49.758;6.120;2023-04-07T13:12:24;5.13;;;3.50;;
7971;SDS011;4031;49.758;6.120;2023-04-07T13:14:50;3.43;;;3.13;;
7971;SDS011;4031;49.758;6.120;2023-04-07T13:17:16;4.60;;;3.30;;
7971;SDS011;4031;49.758;6.120;2023-04-07T13:19:42;6.23;;;3.83;;
7971;SDS011;4031;49.758;6.120;2023-04-07T13:22:11;5.73;;;3.13;;
7971;SDS011;4031;49.758;6.120;2023-04-07T13:24:37;3.13;;;2.80;;
7971;SDS011;4031;49.758;6.120;2023-04-07T13:27:03;3.87;;;3.03;;
7971;SDS011;4031;49.758;6.120;2023-04-07T13:29:29;3.07;;;2.77;;
7971;SDS011;4031;49.758;6.120;2023-04-07T13:32:07;3.00;;;2.80;;
7971;SDS011;4031;49.758;6.120;2023-04-07T13:34:36;3.70;;;3.30;;
7971;SDS011;4031;49.758;6.120;2023-04-07T13:37:03;5.07;;;2.93;;
7971;SDS011;4031;49.758;6.120;2023-04-07T13:39:30;2.60;;;2.30;;
7971;SDS011;4031;49.758;6.120;2023-04-07T13:41:56;2.90;;;2.70;;
7971;SDS011;4031;49.758;6.120;2023-04-07T13:44:26;3.90;;;2.57;;
7971;SDS011;4031;49.758;6.120;2023-04-07T13:46:53;2.60;;;2.30;;
7971;SDS011;4031;49.758;6.120;2023-04-07T13:49:20;3.47;;;2.00;;
7971;SDS011;4031;49.758;6.120;2023-04-07T13:51:46;2.70;;;2.50;;
7971;SDS011;4031;49.758;6.120;2023-04-07T13:54:12;2.03;;;1.60;;
7971;SDS011;4031;49.758;6.120;2023-04-07T13:56:38;2.83;;;2.20;;
7971;SDS011;4031;49.758;6.120;2023-04-07T13:59:04;2.50;;;2.20;;
7971;SDS011;4031;49.758;6.120;2023-04-07T14:01:30;3.00;;;1.40;;
7971;SDS011;4031;49.758;6.120;2023-04-07T14:03:57;4.30;;;1.70;;
7971;SDS011;4031;49.758;6.120;2023-04-07T14:06:23;2.57;;;2.20;;
7971;SDS011;4031;49.758;6.120;2023-04-07T14:08:51;2.33;;;2.13;;
7971;SDS011;4031;49.758;6.120;2023-04-07T14:11:17;2.40;;;1.67;;
7971;SDS011;4031;49.758;6.120;2023-04-07T14:13:43;2.63;;;2.23;;
7971;SDS011;4031;49.758;6.120;2023-04-07T14:16:10;3.10;;;2.10;;
7971;SDS011;4031;49.758;6.120;2023-04-07T14:18:36;1.90;;;1.70;;
7971;SDS011;4031;49.758;6.120;2023-04-07T14:21:02;2.07;;;1.97;;
7971;SDS011;4031;49.758;6.120;2023-04-07T14:23:29;2.17;;;1.97;;
7971;SDS011;4031;49.758;6.120;2023-04-07T14:25:56;2.30;;;1.50;;
7971;SDS011;4031;49.758;6.120;2023-04-07T14:28:22;1.87;;;1.77;;
7971;SDS011;4031;49.758;6.120;2023-04-07T14:30:48;5.07;;;1.63;;
7971;SDS011;4031;49.758;6.120;2023-04-07T14:33:14;2.10;;;1.60;;
7971;SDS011;4031;49.758;6.120;2023-04-07T14:35:43;3.53;;;2.00;;
7971;SDS011;4031;49.758;6.120;2023-04-07T14:38:08;3.13;;;1.73;;
7971;SDS011;4031;49.758;6.120;2023-04-07T14:40:34;2.03;;;1.93;;
7971;SDS011;4031;49.758;6.120;2023-04-07T14:43:00;3.20;;;2.37;;
7971;SDS011;4031;49.758;6.120;2023-04-07T14:45:27;2.77;;;1.80;;
7971;SDS011;4031;49.758;6.120;2023-04-07T14:47:53;3.97;;;1.53;;
7971;SDS011;4031;49.758;6.120;2023-04-07T14:50:19;2.57;;;2.37;;
7971;SDS011;4031;49.758;6.120;2023-04-07T14:52:45;3.87;;;3.23;;
7971;SDS011;4031;49.758;6.120;2023-04-07T14:55:11;3.10;;;2.37;;
7971;SDS011;4031;49.758;6.120;2023-04-07T14:57:37;3.20;;;2.90;;
7971;SDS011;4031;49.758;6.120;2023-04-07T15:00:03;2.30;;;2.03;;
7971;SDS011;4031;49.758;6.120;2023-04-07T15:02:33;1.60;;;1.50;;
7971;SDS011;4031;49.758;6.120;2023-04-07T15:04:59;3.00;;;2.13;;
7971;SDS011;4031;49.758;6.120;2023-04-07T15:07:25;2.27;;;2.07;;
7971;SDS011;4031;49.758;6.120;2023-04-07T15:09:51;2.50;;;2.30;;
7971;SDS011;4031;49.758;6.120;2023-04-07T15:12:16;5.90;;;2.70;;
7971;SDS011;4031;49.758;6.120;2023-04-07T15:14:43;4.00;;;2.30;;
7971;SDS011;4031;49.758;6.120;2023-04-07T15:17:10;2.50;;;2.20;;
7971;SDS011;4031;49.758;6.120;2023-04-07T15:19:36;5.00;;;2.77;;
7971;SDS011;4031;49.758;6.120;2023-04-07T15:22:02;2.87;;;2.07;;
7971;SDS011;4031;49.758;6.120;2023-04-07T15:24:28;3.00;;;1.93;;
7971;SDS011;4031;49.758;6.120;2023-04-07T15:26:53;3.73;;;1.97;;
7971;SDS011;4031;49.758;6.120;2023-04-07T15:29:19;3.50;;;2.50;;
7971;SDS011;4031;49.758;6.120;2023-04-07T15:31:45;2.80;;;2.40;;
7971;SDS011;4031;49.758;6.120;2023-04-07T15:34:11;1.93;;;1.83;;
7971;SDS011;4031;49.758;6.120;2023-04-07T15:36:37;3.93;;;2.03;;
7971;SDS011;4031;49.758;6.120;2023-04-07T15:39:04;1.77;;;1.67;;
7971;SDS011;4031;49.758;6.120;2023-04-07T15:41:33;2.80;;;1.90;;
7971;SDS011;4031;49.758;6.120;2023-04-07T15:43:59;2.10;;;1.83;;
7971;SDS011;4031;49.758;6.120;2023-04-07T15:46:25;2.60;;;1.60;;
7971;SDS011;4031;49.758;6.120;2023-04-07T15:48:51;2.80;;;2.00;;
7971;SDS011;4031;49.758;6.120;2023-04-07T15:51:17;5.77;;;2.10;;
7971;SDS011;4031;49.758;6.120;2023-04-07T15:53:43;2.90;;;2.13;;
7971;SDS011;4031;49.758;6.120;2023-04-07T15:56:09;2.17;;;1.77;;